Time;durP1;ratioP1;P1;durP2;ratioP2;P2;SDS_P1;SDS_P2;PMS_P1;PMS_P2;Temp;Humidity;BMP_temperature;BMP_pressure;BME280_temperature;BME280_humidity;BME280_pressure;Samples;Min_cycle;Max_cycle;Signal;HPM_P1;HPM_P2
2022/06/04 00:00:20;;;;;;;1.42;1.15;;;16.70;99.90;;;;;;4080240;29;20051;-45
2022/06/04 00:02:43;;;;;;;7.15;1.33;;;16.80;99.90;;;;;;4080012;29;20066;-50
2022/06/04 00:05:04;;;;;;;;;;;16.80;99.90;;;;;;4080546;29;20058;-49
2022/06/04 00:07:24;;;;;;;1.00;1.00;;;16.80;99.90;;;;;;4083733;29;20297;-50
2022/06/04 00:15:29;;;;;;;2.90;0.90;;;16.50;99.90;;;;;;4096271;29;20059;-48
2022/06/04 00:17:52;;;;;;;0.90;0.90;;;16.50;99.90;;;;;;4094141;28;20058;-48
2022/06/04 00:20:13;;;;;;;;;;;16.60;99.90;;;;;;4096276;29;20109;-49
2022/06/04 00:22:33;;;;;;;0.90;0.90;;;16.60;99.90;;;;;;4095640;29;19972;-48
2022/06/04 00:24:54;;;;;;;2.00;0.90;;;16.50;99.90;;;;;;4095661;29;20419;-49
2022/06/04 00:27:21;;;;;;;1.30;0.90;;;16.30;99.90;;;;;;4095702;29;20061;-49
2022/06/04 00:29:42;;;;;;;1.48;0.90;;;16.20;99.90;;;;;;4087607;29;20054;-49
2022/06/04 00:32:04;;;;;;;1.40;1.08;;;16.00;99.90;;;;;;4079486;29;20065;-45
2022/06/04 00:34:24;;;;;;;3.53;1.00;;;15.90;99.90;;;;;;4079829;29;20066;-47
2022/06/04 00:36:46;;;;;;;1.40;0.90;;;15.80;99.90;;;;;;4079475;29;20070;-48
2022/06/04 00:39:06;;;;;;;1.05;0.90;;;15.90;99.90;;;;;;4079699;29;20051;-48
2022/06/04 00:41:53;;;;;;;1.92;1.25;;;15.90;99.90;;;;;;4079384;29;20466;-50
2022/06/04 00:44:14;;;;;;;2.17;1.73;;;16.10;99.90;;;;;;4091019;29;20104;-48
2022/06/04 00:46:41;;;;;;;2.10;0.95;;;16.10;99.90;;;;;;4095316;29;20066;-48
2022/06/04 00:49:02;;;;;;;0.90;0.90;;;16.20;99.90;;;;;;4094128;28;20086;-50
2022/06/04 00:51:24;;;;;;;1.00;1.00;;;16.20;99.90;;;;;;4079552;29;20054;-47
2022/06/04 00:53:45;;;;;;;2.28;0.90;;;16.30;99.90;;;;;;4079810;29;20462;-49
2022/06/04 00:56:29;;;;;;;0.90;0.90;;;16.20;99.90;;;;;;4079416;29;20576;-45
2022/06/04 00:59:05;;;;;;;0.80;0.80;;;16.10;99.90;;;;;;4078536;29;20102;-47
2022/06/04 01:01:32;;;;;;;1.52;1.42;;;16.00;99.90;;;;;;4079066;29;20066;-48
2022/06/04 01:04:47;;;;;;;2.10;1.00;;;15.90;99.90;;;;;;4078673;29;20094;-48
2022/06/04 01:07:26;;;;;;;1.08;1.00;;;15.80;99.90;;;;;;4080781;29;20059;-46
2022/06/04 01:09:55;;;;;;;1.75;1.00;;;15.70;99.90;;;;;;4095443;29;20058;-49
2022/06/04 01:12:37;;;;;;;1.27;0.90;;;15.60;99.90;;;;;;4094908;29;20566;-48
2022/06/04 01:15:24;;;;;;;1.30;1.00;;;15.90;99.90;;;;;;4095335;29;20136;-48
2022/06/04 01:17:59;;;;;;;1.30;1.20;;;15.60;99.90;;;;;;4094697;28;20058;-49
2022/06/04 01:20:22;;;;;;;1.13;1.10;;;15.40;99.90;;;;;;4095261;29;20135;-52
2022/06/04 01:23:26;;;;;;;1.20;1.00;;;15.40;99.90;;;;;;4094953;29;20109;-49
2022/06/04 01:26:14;;;;;;;1.60;0.90;;;15.60;99.90;;;;;;4095046;29;20058;-51
2022/06/04 01:28:40;;;;;;;1.00;1.00;;;15.70;99.90;;;;;;4094990;29;20406;-51
2022/06/04 01:31:06;;;;;;;3.70;1.45;;;15.70;99.90;;;;;;4094724;29;20105;-50
2022/06/04 01:33:53;;;;;;;1.00;1.00;;;15.60;99.90;;;;;;4077940;29;20106;-50
2022/06/04 01:36:19;;;;;;;1.30;1.30;;;15.70;99.90;;;;;;4079051;29;20109;-51
2022/06/04 01:39:00;;;;;;;3.72;1.10;;;15.60;99.90;;;;;;4086748;29;20081;-51
2022/06/04 01:41:43;;;;;;;1.38;1.30;;;15.60;99.90;;;;;;4094778;29;20054;-51
2022/06/04 01:44:19;;;;;;;1.23;1.05;;;15.50;99.90;;;;;;4094531;29;20131;-51
2022/06/04 01:46:45;;;;;;;3.35;0.90;;;15.40;99.90;;;;;;4078915;29;20057;-48
2022/06/04 01:49:14;;;;;;;2.03;1.00;;;15.30;99.90;;;;;;4093236;29;20105;-50
2022/06/04 01:51:37;;;;;;;1.35;1.00;;;15.10;99.90;;;;;;4087333;29;20136;-50
2022/06/04 01:54:14;;;;;;;1.95;1.30;;;15.00;99.90;;;;;;4094198;29;20058;-51
2022/06/04 01:56:39;;;;;;;2.45;1.10;;;14.90;99.90;;;;;;4094652;29;20054;-50
2022/06/04 01:59:21;;;;;;;2.30;1.00;;;15.00;99.90;;;;;;4078681;29;20427;-51
2022/06/04 02:01:44;;;;;;;1.83;1.30;;;14.90;99.90;;;;;;4091000;29;20066;-52
2022/06/04 02:04:06;;;;;;;;;;;14.90;99.90;;;;;;4087924;29;20050;-51
2022/06/04 02:06:34;;;;;;;1.33;1.10;;;15.00;99.90;;;;;;4079054;29;19929;-49
2022/06/04 02:09:04;;;;;;;1.23;1.23;;;15.00;99.90;;;;;;4094771;29;20194;-51
2022/06/04 02:11:26;;;;;;;1.77;1.10;;;15.10;99.90;;;;;;4124983;28;20195;-48
2022/06/04 02:13:50;;;;;;;1.63;1.42;;;15.10;99.90;;;;;;4135931;28;20053;-51
2022/06/04 02:16:27;;;;;;;2.88;1.10;;;15.10;99.90;;;;;;4094182;29;20050;-51
2022/06/04 02:18:49;;;;;;;8.65;1.10;;;15.10;99.90;;;;;;4093778;28;20058;-52
2022/06/04 02:21:10;;;;;;;1.13;1.10;;;15.10;99.90;;;;;;4078215;29;20102;-50
2022/06/04 02:23:33;;;;;;;6.55;1.75;;;15.00;99.90;;;;;;4078027;29;20369;-49
2022/06/04 02:25:54;;;;;;;3.38;1.48;;;14.90;99.90;;;;;;4078177;29;20063;-51
2022/06/04 02:28:15;;;;;;;1.40;1.40;;;14.90;99.90;;;;;;4078288;29;20054;-48
2022/06/04 02:31:11;;;;;;;2.60;1.20;;;15.00;99.90;;;;;;4078549;29;20553;-51
2022/06/04 02:33:35;;;;;;;1.15;1.15;;;15.00;99.90;;;;;;4093562;28;20114;-51
2022/06/04 02:36:06;;;;;;;1.33;1.23;;;15.00;99.90;;;;;;4077983;29;20070;-49
2022/06/04 02:39:09;;;;;;;2.97;1.52;;;14.90;99.90;;;;;;4078281;29;20094;-50
2022/06/04 02:41:37;;;;;;;1.42;1.02;;;15.00;99.90;;;;;;4092521;29;20082;-51
2022/06/04 02:44:07;;;;;;;1.50;1.20;;;15.10;99.90;;;;;;4093889;29;20058;-51
2022/06/04 02:46:48;;;;;;;3.00;1.02;;;15.10;99.90;;;;;;4094057;29;20086;-51
2022/06/04 02:49:21;;;;;;;1.63;1.13;;;15.10;99.90;;;;;;4092714;29;20077;-51
2022/06/04 02:51:46;;;;;;;1.10;1.00;;;15.10;99.90;;;;;;4093748;29;20050;-52
2022/06/04 02:54:19;;;;;;;0.95;0.95;;;15.10;99.90;;;;;;4093875;29;20104;-51
2022/06/04 02:56:42;;;;;;;1.20;1.05;;;15.20;99.90;;;;;;4094099;29;20062;-51
2022/06/04 02:59:06;;;;;;;1.85;1.00;;;15.10;99.90;;;;;;4093857;29;20109;-48
2022/06/04 03:01:29;;;;;;;1.20;1.10;;;15.00;99.90;;;;;;4093988;29;20490;-51
2022/06/04 03:03:50;;;;;;;1.50;1.00;;;14.90;99.90;;;;;;4093910;29;20078;-50
2022/06/04 03:06:30;;;;;;;1.92;1.10;;;15.00;99.90;;;;;;4094199;29;20097;-51
2022/06/04 03:08:53;;;;;;;2.38;1.10;;;15.00;99.90;;;;;;4093948;29;20050;-49
2022/06/04 03:11:14;;;;;;;1.83;1.25;;;15.00;99.90;;;;;;4116753;28;20461;-49
2022/06/04 03:13:35;;;;;;;1.08;1.00;;;15.00;99.90;;;;;;4179720;28;20098;-50
2022/06/04 03:15:56;;;;;;;1.20;1.20;;;15.10;99.90;;;;;;4158181;28;20418;-51
2022/06/04 03:18:18;;;;;;;2.45;1.00;;;15.20;99.90;;;;;;4096426;29;20058;-49
2022/06/04 03:20:38;;;;;;;0.95;0.95;;;15.20;99.90;;;;;;4080852;29;20051;-52
2022/06/04 03:23:09;;;;;;;2.03;1.10;;;15.10;99.90;;;;;;4090981;29;20054;-51
2022/06/04 03:25:30;;;;;;;1.10;1.10;;;15.00;99.90;;;;;;4096206;29;20045;-51
2022/06/04 03:27:51;;;;;;;3.53;1.00;;;15.00;99.90;;;;;;4096198;29;20105;-52
2022/06/04 03:30:16;;;;;;;3.90;1.10;;;15.00;99.90;;;;;;4080579;29;20055;-49
2022/06/04 03:32:36;;;;;;;1.25;1.10;;;15.00;99.90;;;;;;4090249;29;20181;-50
2022/06/04 03:34:58;;;;;;;1.48;1.48;;;15.00;99.90;;;;;;4096109;29;20050;-49
2022/06/04 03:37:19;;;;;;;1.33;1.00;;;15.00;99.90;;;;;;4096083;29;20076;-51
2022/06/04 03:39:39;;;;;;;2.08;1.30;;;15.00;99.90;;;;;;4095966;29;20528;-47
2022/06/04 03:42:01;;;;;;;1.50;1.40;;;14.90;99.90;;;;;;4095924;29;20125;-50
2022/06/04 03:44:21;;;;;;;1.98;1.00;;;15.00;99.90;;;;;;4094816;29;20105;-50
2022/06/04 03:46:42;;;;;;;1.80;1.00;;;15.10;99.90;;;;;;4096368;29;20101;-52
2022/06/04 03:49:04;;;;;;;1.77;1.45;;;15.00;99.90;;;;;;4096400;29;20136;-48
2022/06/04 03:51:28;;;;;;;1.65;1.10;;;15.20;99.90;;;;;;4087780;29;20050;-49
2022/06/04 03:53:48;;;;;;;1.60;1.13;;;15.10;99.90;;;;;;4095786;29;20069;-49
2022/06/04 03:56:09;;;;;;;1.17;1.17;;;15.20;99.90;;;;;;4095990;29;20130;-51
2022/06/04 03:58:30;;;;;;;2.05;1.30;;;15.10;99.90;;;;;;4095964;29;20085;-47
2022/06/04 04:00:51;;;;;;;2.17;1.20;;;15.10;99.90;;;;;;4088457;29;20139;-50
2022/06/04 04:03:17;;;;;;;1.25;1.10;;;15.10;99.90;;;;;;4080408;29;20541;-50
2022/06/04 04:05:41;;;;;;;1.45;1.13;;;15.00;99.90;;;;;;4079663;29;20106;-49
2022/06/04 04:08:04;;;;;;;3.22;1.17;;;14.90;99.90;;;;;;4088391;29;20066;-49
2022/06/04 04:10:26;;;;;;;2.05;1.30;;;14.80;99.90;;;;;;4095858;29;20158;-52
2022/06/04 04:12:47;;;;;;;4.38;1.63;;;14.80;99.90;;;;;;4079986;29;20078;-51
2022/06/04 04:15:10;;;;;;;2.53;1.00;;;14.80;99.90;;;;;;4080014;29;20059;-51
2022/06/04 04:17:31;;;;;;;3.90;1.20;;;14.80;99.90;;;;;;4085068;28;20054;-51
2022/06/04 04:19:52;;;;;;;1.55;1.10;;;14.90;99.90;;;;;;4095758;29;20045;-51
2022/06/04 04:22:13;;;;;;;2.85;1.42;;;14.80;99.90;;;;;;4095836;29;20065;-48
2022/06/04 04:24:34;;;;;;;1.55;1.00;;;14.90;99.90;;;;;;4094921;28;20054;-50
2022/06/04 04:26:55;;;;;;;4.03;1.90;;;14.90;99.90;;;;;;4096200;29;20062;-50
2022/06/04 04:29:16;;;;;;;1.48;1.20;;;14.90;99.90;;;;;;4095567;29;20065;-51
2022/06/04 04:31:37;;;;;;;1.02;1.02;;;14.90;99.90;;;;;;4095294;29;20062;-50
2022/06/04 04:34:00;;;;;;;3.15;1.95;;;15.00;99.90;;;;;;4094482;29;20057;-48
2022/06/04 04:36:20;;;;;;;1.88;1.30;;;15.00;99.90;;;;;;4095697;29;20067;-51
2022/06/04 04:38:43;;;;;;;1.23;1.23;;;15.10;99.90;;;;;;4095685;29;20731;-51
2022/06/04 04:41:12;;;;;;;1.75;1.00;;;15.00;99.90;;;;;;4095783;29;20109;-48
2022/06/04 04:43:33;;;;;;;3.30;1.25;;;15.10;99.90;;;;;;4095796;29;20497;-51
2022/06/04 04:46:05;;;;;;;1.10;1.10;;;15.30;99.90;;;;;;4094457;29;20417;-49
2022/06/04 04:48:26;;;;;;;2.40;1.20;;;15.30;99.90;;;;;;4095611;29;20113;-52
2022/06/04 04:50:48;;;;;;;1.45;1.35;;;15.30;99.90;;;;;;4095350;29;20136;-49
2022/06/04 04:53:11;;;;;;;7.53;1.43;;;15.30;99.90;;;;;;4095903;29;20066;-50
2022/06/04 04:55:32;;;;;;;;;;;15.40;99.90;;;;;;4096097;29;20066;-51
2022/06/04 04:57:53;;;;;;;2.13;1.10;;;15.40;99.90;;;;;;4095339;29;20281;-49
2022/06/04 05:00:15;;;;;;;3.75;1.17;;;15.40;99.90;;;;;;4095166;29;20431;-50
2022/06/04 05:02:36;;;;;;;1.13;1.10;;;15.40;99.90;;;;;;4095234;29;20062;-51
2022/06/04 05:04:57;;;;;;;2.10;1.23;;;15.50;99.90;;;;;;4079588;29;20062;-49
2022/06/04 05:07:18;;;;;;;1.90;1.70;;;15.50;99.90;;;;;;4090553;29;20553;-52
2022/06/04 05:09:40;;;;;;;1.08;1.00;;;15.50;99.90;;;;;;4095166;29;20464;-51
2022/06/04 05:12:01;;;;;;;2.03;1.10;;;15.50;99.90;;;;;;4150024;28;20060;-50
2022/06/04 05:14:22;;;;;;;1.85;1.00;;;15.60;99.90;;;;;;4079268;29;20082;-51
2022/06/04 05:16:42;;;;;;;1.20;1.10;;;15.60;99.90;;;;;;4088761;29;20097;-52
2022/06/04 05:19:05;;;;;;;1.50;1.42;;;15.60;99.90;;;;;;4094973;29;20047;-48
2022/06/04 05:21:37;;;;;;;1.20;1.10;;;15.70;99.90;;;;;;4094900;29;20104;-51
2022/06/04 05:23:57;;;;;;;2.10;1.45;;;15.60;99.90;;;;;;4079180;29;20066;-52
2022/06/04 05:26:19;;;;;;;1.05;1.00;;;15.70;99.90;;;;;;4078113;29;20050;-52
2022/06/04 05:28:39;;;;;;;2.17;1.00;;;15.80;99.90;;;;;;4083900;29;20062;-52
2022/06/04 05:31:00;;;;;;;1.58;1.00;;;15.90;99.90;;;;;;4089257;29;20086;-52
2022/06/04 05:33:21;;;;;;;3.00;1.10;;;16.00;99.90;;;;;;4094541;29;20100;-51
2022/06/04 05:35:41;;;;;;;2.25;1.05;;;16.10;99.90;;;;;;4093786;28;20063;-52
2022/06/04 05:38:02;;;;;;;2.08;0.98;;;16.10;99.90;;;;;;4094816;29;20475;-52
2022/06/04 05:40:23;;;;;;;1.00;1.00;;;16.10;99.90;;;;;;4095316;29;20093;-51
2022/06/04 05:42:43;;;;;;;1.77;0.90;;;16.20;99.90;;;;;;4094467;29;20117;-50
2022/06/04 05:45:04;;;;;;;1.10;1.10;;;16.30;99.90;;;;;;4078997;29;20054;-51
2022/06/04 05:47:26;;;;;;;4.57;1.20;;;16.50;99.90;;;;;;4078995;29;20062;-52
2022/06/04 05:49:46;;;;;;;1.90;1.25;;;16.60;99.90;;;;;;4083716;29;20282;-53
2022/06/04 05:52:07;;;;;;;2.25;1.10;;;16.80;99.90;;;;;;4094649;29;20061;-52
2022/06/04 05:54:28;;;;;;;2.90;1.00;;;17.00;99.90;;;;;;4094482;29;20109;-52
2022/06/04 05:56:50;;;;;;;1.00;1.00;;;17.30;99.90;;;;;;4094276;29;20058;-52
2022/06/04 05:59:14;;;;;;;1.10;1.00;;;17.50;99.90;;;;;;4094813;29;20125;-52
2022/06/04 06:01:38;;;;;;;2.58;1.20;;;17.70;99.90;;;;;;4094473;29;20062;-51
2022/06/04 06:04:00;;;;;;;1.15;0.80;;;17.90;99.90;;;;;;4094460;29;20537;-51
2022/06/04 06:06:24;;;;;;;1.30;0.90;;;18.20;99.90;;;;;;4094383;29;20099;-52
2022/06/04 06:08:52;;;;;;;1.67;1.10;;;18.50;99.90;;;;;;4094004;29;20086;-54
2022/06/04 06:11:15;;;;;;;0.93;0.90;;;18.60;99.90;;;;;;4116091;28;20609;-51
2022/06/04 06:13:36;;;;;;;;;;;18.70;99.90;;;;;;4177793;28;20577;-52
2022/06/04 06:16:07;;;;;;;1.50;0.90;;;18.80;99.90;;;;;;4177554;28;20013;-54
2022/06/04 06:18:27;;;;;;;1.25;1.25;;;19.20;99.90;;;;;;4108688;28;20677;-53
2022/06/04 06:20:48;;;;;;;1.35;1.25;;;19.50;99.90;;;;;;4094306;29;20517;-53
2022/06/04 06:23:15;;;;;;;2.70;0.90;;;19.80;99.90;;;;;;4094140;29;20426;-51
2022/06/04 06:25:36;;;;;;;2.30;0.70;;;20.20;99.90;;;;;;4092122;29;20101;-52
2022/06/04 06:27:57;;;;;;;3.45;0.90;;;20.10;99.90;;;;;;4093747;29;20097;-51
2022/06/04 06:30:18;;;;;;;1.23;0.80;;;19.80;99.90;;;;;;4094840;29;20533;-52
2022/06/04 06:32:40;;;;;;;0.90;0.90;;;19.80;99.90;;;;;;4093913;29;20533;-52
2022/06/04 06:35:04;;;;;;;1.88;0.80;;;19.60;99.90;;;;;;4094055;29;20062;-54
2022/06/04 06:37:24;;;;;;;1.65;0.80;;;19.50;99.90;;;;;;4090923;29;20094;-53
2022/06/04 06:39:45;;;;;;;0.75;0.70;;;19.60;99.90;;;;;;4088847;29;20070;-52
2022/06/04 06:42:06;;;;;;;2.13;0.70;;;19.80;99.90;;;;;;4083294;29;20054;-54
2022/06/04 06:44:27;;;;;;;2.75;0.80;;;20.20;99.90;;;;;;4091469;29;20101;-53
2022/06/04 06:46:49;;;;;;;2.60;0.70;;;20.70;99.90;;;;;;4093604;29;20522;-53
2022/06/04 06:49:19;;;;;;;5.00;0.70;;;20.80;99.90;;;;;;4093963;29;20054;-52
2022/06/04 06:51:49;;;;;;;4.72;0.70;;;20.90;99.90;;;;;;4093909;29;20101;-53
2022/06/04 06:54:10;;;;;;;2.05;0.65;;;21.30;99.90;;;;;;4093615;29;20267;-53
2022/06/04 06:56:34;;;;;;;3.20;0.90;;;21.70;99.90;;;;;;4092631;29;20255;-52
2022/06/04 06:58:56;;;;;;;3.45;0.70;;;22.00;99.90;;;;;;4093644;29;20521;-52
2022/06/04 07:01:17;;;;;;;1.42;0.60;;;22.20;99.90;;;;;;4093947;29;20514;-54
2022/06/04 07:03:40;;;;;;;0.80;0.80;;;22.40;99.90;;;;;;4093697;29;20069;-52
2022/06/04 07:06:00;;;;;;;1.60;0.50;;;22.70;99.90;;;;;;4093924;29;20065;-53
2022/06/04 07:08:22;;;;;;;1.02;0.70;;;22.90;99.90;;;;;;4093725;29;20054;-52
2022/06/04 07:10:43;;;;;;;1.50;0.60;;;23.00;99.90;;;;;;4093705;29;20062;-54
2022/06/04 07:13:03;;;;;;;3.13;0.60;;;23.40;99.90;;;;;;4092762;29;20046;-54
2022/06/04 07:15:24;;;;;;;2.67;0.60;;;23.50;99.90;;;;;;4093094;29;20578;-53
2022/06/04 07:17:44;;;;;;;4.03;0.50;;;23.60;99.90;;;;;;4092812;28;20058;-53
2022/06/04 07:20:05;;;;;;;0.50;0.50;;;23.70;99.90;;;;;;4082795;29;20086;-53
2022/06/04 07:22:26;;;;;;;3.80;0.60;;;24.00;99.90;;;;;;4091275;29;20849;-54
2022/06/04 07:24:47;;;;;;;1.00;0.52;;;24.00;99.90;;;;;;4095256;28;20067;-54
2022/06/04 07:27:09;;;;;;;1.27;0.60;;;24.20;99.90;;;;;;4089087;29;20070;-50
2022/06/04 07:29:30;;;;;;;0.60;0.60;;;24.40;99.90;;;;;;4092356;29;20413;-55
2022/06/04 07:31:50;;;;;;;2.13;0.50;;;24.60;99.90;;;;;;4090896;29;20050;-53
2022/06/04 07:34:12;;;;;;;2.63;0.50;;;24.80;99.50;;;;;;4090207;29;20054;-54
2022/06/04 07:36:36;;;;;;;2.78;0.63;;;24.90;98.20;;;;;;4128636;28;20078;-54
2022/06/04 07:38:57;;;;;;;2.15;0.40;;;25.00;98.00;;;;;;4089237;29;20050;-53
2022/06/04 07:41:21;;;;;;;1.08;0.50;;;25.20;98.20;;;;;;4086360;29;20062;-49
2022/06/04 07:43:42;;;;;;;0.60;0.50;;;25.50;98.70;;;;;;4091284;29;20097;-54
2022/06/04 07:46:03;;;;;;;3.00;0.50;;;25.80;97.70;;;;;;4084052;29;20130;-52
2022/06/04 07:48:24;;;;;;;3.63;1.38;;;25.90;96.80;;;;;;4090528;29;20332;-53
2022/06/04 07:50:48;;;;;;;1.77;0.50;;;26.20;97.70;;;;;;4091118;29;20097;-51
2022/06/04 07:53:09;;;;;;;3.00;0.60;;;25.80;97.60;;;;;;4091800;29;20114;-49
2022/06/04 07:55:29;;;;;;;0.85;0.43;;;25.60;97.20;;;;;;4092848;29;20560;-50
2022/06/04 07:57:50;;;;;;;3.33;0.50;;;25.60;97.50;;;;;;4085692;29;20449;-50
2022/06/04 08:00:12;;;;;;;5.50;0.50;;;25.90;98.40;;;;;;4092401;29;20049;-50
2022/06/04 08:02:32;;;;;;;5.85;0.70;;;26.30;97.70;;;;;;4095410;29;20054;-51
2022/06/04 08:04:54;;;;;;;1.65;0.50;;;26.70;98.30;;;;;;4095755;29;20102;-50
2022/06/04 08:07:15;;;;;;;0.77;0.50;;;26.80;96.10;;;;;;4095544;29;20134;-50
2022/06/04 08:09:35;;;;;;;2.33;0.70;;;27.20;97.90;;;;;;4091120;29;20156;-49
2022/06/04 08:11:56;;;;;;;0.43;0.40;;;27.70;97.30;;;;;;4134330;28;20047;-50
2022/06/04 08:14:23;;;;;;;4.47;0.40;;;27.60;95.70;;;;;;4088199;29;20043;-52
2022/06/04 08:16:48;;;;;;;1.60;0.50;;;26.80;96.20;;;;;;4093531;29;20109;-52
2022/06/04 08:19:09;;;;;;;3.50;0.43;;;26.90;96.50;;;;;;4087379;29;20098;-51
2022/06/04 08:21:32;;;;;;;2.92;0.50;;;27.00;95.90;;;;;;4081232;29;20078;-52
2022/06/04 08:23:52;;;;;;;3.35;0.50;;;27.30;96.10;;;;;;4095802;29;20113;-51
2022/06/04 08:26:13;;;;;;;1.85;0.50;;;27.80;95.90;;;;;;4095565;29;20110;-50
2022/06/04 08:28:34;;;;;;;2.08;0.47;;;27.70;95.10;;;;;;4095436;29;20081;-50
2022/06/04 08:31:06;;;;;;;1.08;0.50;;;27.70;94.60;;;;;;4096090;29;20525;-50
2022/06/04 08:33:27;;;;;;;1.98;0.50;;;28.20;95.00;;;;;;4094672;29;20105;-51
2022/06/04 08:35:48;;;;;;;4.78;0.40;;;28.40;94.30;;;;;;4081480;29;20420;-51
2022/06/04 08:38:08;;;;;;;1.90;0.40;;;28.50;93.50;;;;;;4079805;29;20054;-50
2022/06/04 08:40:45;;;;;;;0.70;0.45;;;28.30;94.60;;;;;;4079428;29;20134;-52
2022/06/04 08:43:08;;;;;;;1.27;0.40;;;28.40;94.10;;;;;;4081784;29;20066;-51
2022/06/04 08:45:29;;;;;;;3.13;0.95;;;28.70;94.40;;;;;;4095501;29;20058;-50
2022/06/04 08:47:52;;;;;;;4.82;0.50;;;28.70;92.70;;;;;;4094123;29;20059;-50
2022/06/04 08:50:18;;;;;;;0.95;0.50;;;28.80;94.30;;;;;;4095179;29;20050;-51
2022/06/04 08:52:46;;;;;;;0.50;0.50;;;28.80;92.80;;;;;;4095107;29;20251;-48
2022/06/04 08:58:36;;;;;;;1.90;0.40;;;29.40;91.70;;;;;;4095078;29;20058;-52
2022/06/04 09:01:10;;;;;;;0.90;0.40;;;29.50;91.10;;;;;;4095091;29;20131;-51
2022/06/04 09:03:47;;;;;;;0.35;0.35;;;29.30;90.20;;;;;;4095221;29;20411;-50
2022/06/04 09:06:37;;;;;;;1.85;0.30;;;29.50;91.00;;;;;;4095153;29;20050;-50
2022/06/04 09:09:05;;;;;;;3.25;0.43;;;29.90;91.70;;;;;;4079281;29;20055;-51
2022/06/04 09:11:48;;;;;;;3.42;0.45;;;30.20;90.00;;;;;;4115955;28;20047;-50
2022/06/04 09:14:09;;;;;;;1.05;0.40;;;30.50;89.70;;;;;;4148159;28;20054;-52
2022/06/04 09:16:34;;;;;;;1.58;0.50;;;30.60;90.50;;;;;;4094942;29;20483;-52
2022/06/04 09:18:59;;;;;;;1.33;0.40;;;30.80;86.70;;;;;;4094890;29;20101;-52
2022/06/04 09:21:20;;;;;;;0.85;0.38;;;30.70;90.30;;;;;;4094991;29;20057;-50
2022/06/04 09:23:47;;;;;;;0.85;0.40;;;30.70;88.40;;;;;;4094606;29;20131;-51
2022/06/04 09:26:21;;;;;;;1.23;0.30;;;31.00;89.80;;;;;;4094765;29;20418;-52
2022/06/04 09:29:04;;;;;;;1.88;0.35;;;31.60;90.60;;;;;;4094942;29;20485;-50
2022/06/04 09:31:27;;;;;;;0.75;0.30;;;31.50;87.50;;;;;;4091231;29;20105;-51
2022/06/04 09:34:09;;;;;;;0.85;0.40;;;31.60;91.00;;;;;;4084827;29;20057;-51
2022/06/04 09:36:34;;;;;;;1.10;0.30;;;31.50;89.10;;;;;;4080578;28;20057;-51
2022/06/04 09:39:02;;;;;;;0.30;0.30;;;31.20;87.50;;;;;;4086029;29;20125;-51
2022/06/04 09:41:25;;;;;;;0.93;0.30;;;31.10;86.80;;;;;;4092557;29;20058;-52
2022/06/04 09:43:46;;;;;;;1.92;0.30;;;31.10;88.00;;;;;;4093746;29;20062;-50
2022/06/04 09:46:07;;;;;;;1.05;0.28;;;31.20;85.80;;;;;;4085663;29;20428;-51
2022/06/04 09:48:35;;;;;;;1.70;0.40;;;31.40;86.30;;;;;;4086810;29;20209;-50
2022/06/04 09:51:02;;;;;;;0.47;0.30;;;31.60;90.20;;;;;;4086603;29;20050;-52
2022/06/04 09:53:32;;;;;;;0.98;0.40;;;31.50;85.90;;;;;;4084452;29;20556;-51
2022/06/04 09:56:27;;;;;;;4.00;0.40;;;31.40;85.40;;;;;;4089845;29;20058;-49
2022/06/04 09:58:49;;;;;;;3.65;0.40;;;31.60;89.00;;;;;;4091829;29;20126;-51
2022/06/04 10:01:16;;;;;;;3.22;0.47;;;31.50;87.30;;;;;;4091838;29;20096;-51
2022/06/04 10:03:39;;;;;;;1.00;0.40;;;31.70;85.30;;;;;;4078567;29;20122;-51
2022/06/04 10:06:07;;;;;;;4.20;0.40;;;31.50;86.60;;;;;;4088280;29;20132;-52
2022/06/04 10:08:29;;;;;;;3.90;0.40;;;31.40;83.50;;;;;;4090187;29;20572;-51
2022/06/04 10:10:57;;;;;;;7.57;0.40;;;31.80;85.60;;;;;;4087938;28;20053;-51
2022/06/04 10:13:42;;;;;;;2.55;0.40;;;32.10;85.40;;;;;;4082803;29;20693;-51
2022/06/04 10:16:15;;;;;;;4.38;0.47;;;32.40;85.60;;;;;;4081684;29;20058;-51
2022/06/04 10:18:36;;;;;;;2.15;0.35;;;31.70;85.70;;;;;;4086170;28;20046;-51
2022/06/04 10:21:05;;;;;;;0.90;0.40;;;32.20;89.00;;;;;;4081894;29;20123;-51
2022/06/04 10:23:28;;;;;;;1.88;0.40;;;32.40;80.30;;;;;;4087375;29;20101;-50
2022/06/04 10:26:37;;;;;;;5.18;0.50;;;31.70;78.60;;;;;;4087597;29;20061;-51
2022/06/04 10:29:04;;;;;;;2.50;0.40;;;31.30;80.00;;;;;;4143875;28;20202;-51
2022/06/04 10:31:43;;;;;;;1.30;0.40;;;31.70;83.10;;;;;;4076773;29;20090;-51
2022/06/04 10:34:17;;;;;;;6.95;0.50;;;32.20;82.70;;;;;;4088255;29;20054;-51
2022/06/04 10:36:57;;;;;;;7.63;0.60;;;32.30;79.30;;;;;;4094357;29;20215;-52
2022/06/04 10:39:37;;;;;;;5.38;0.40;;;32.20;81.50;;;;;;4086454;29;20061;-51
2022/06/04 10:42:35;;;;;;;2.05;0.43;;;31.70;80.70;;;;;;4093041;29;20051;-52
2022/06/04 10:45:08;;;;;;;4.95;0.75;;;32.20;79.70;;;;;;4091811;29;20077;-50
2022/06/04 10:47:35;;;;;;;3.90;0.80;;;32.20;83.10;;;;;;4088353;29;20065;-51
2022/06/04 10:50:24;;;;;;;4.93;0.60;;;32.20;81.10;;;;;;4090656;29;20557;-50
2022/06/04 10:53:00;;;;;;;2.67;0.40;;;32.70;82.60;;;;;;4092806;29;20058;-52
2022/06/04 10:55:35;;;;;;;7.93;0.50;;;32.60;79.80;;;;;;4093595;29;20109;-52
2022/06/04 10:58:32;;;;;;;4.35;0.77;;;32.50;80.50;;;;;;4093523;29;20085;-51
2022/06/04 11:00:57;;;;;;;4.63;0.50;;;32.00;78.90;;;;;;4078015;29;20145;-51
2022/06/04 11:03:40;;;;;;;5.65;0.40;;;32.10;80.80;;;;;;4090913;29;20055;-50
2022/06/04 11:06:16;;;;;;;4.22;0.50;;;32.20;80.90;;;;;;4093408;29;20441;-52
2022/06/04 11:08:59;;;;;;;4.50;0.85;;;32.00;82.00;;;;;;4093621;29;20086;-51
2022/06/04 11:11:24;;;;;;;3.17;0.50;;;31.90;81.10;;;;;;4116780;28;20129;-51
2022/06/04 11:13:51;;;;;;;6.20;0.80;;;32.30;84.30;;;;;;4093405;29;20127;-50
2022/06/04 11:16:18;;;;;;;3.28;0.40;;;32.50;80.50;;;;;;4093323;29;20058;-52
2022/06/04 11:18:57;;;;;;;3.10;0.50;;;32.60;82.30;;;;;;4091351;28;20101;-50
2022/06/04 11:21:35;;;;;;;5.60;0.55;;;32.60;81.40;;;;;;4086622;29;20066;-51
2022/06/04 11:24:01;;;;;;;4.95;1.08;;;32.70;79.50;;;;;;4078327;29;20070;-50
2022/06/04 11:26:38;;;;;;;3.75;0.50;;;32.50;81.60;;;;;;4077261;29;20484;-51
2022/06/04 11:29:02;;;;;;;3.65;0.50;;;32.20;79.10;;;;;;4091904;29;20414;-48
2022/06/04 11:31:30;;;;;;;13.40;0.52;;;32.10;80.80;;;;;;4093525;29;20058;-51
2022/06/04 11:33:57;;;;;;;3.75;0.50;;;32.00;80.40;;;;;;4093330;29;20419;-50
2022/06/04 11:36:53;;;;;;;4.90;0.50;;;31.60;81.80;;;;;;4096152;29;20105;-50
2022/06/04 11:39:57;;;;;;;6.68;0.50;;;31.80;80.90;;;;;;4100895;28;20134;-50
2022/06/04 11:42:20;;;;;;;4.10;0.75;;;32.40;82.90;;;;;;4144574;28;20116;-50
2022/06/04 11:45:25;;;;;;;4.60;0.40;;;32.70;82.30;;;;;;4098043;28;20058;-51
2022/06/04 11:47:49;;;;;;;5.80;0.93;;;32.50;81.40;;;;;;4095815;29;20484;-50
2022/06/04 11:50:12;;;;;;;2.17;0.50;;;32.70;82.60;;;;;;4096182;29;20057;-50
2022/06/04 11:52:45;;;;;;;6.10;0.50;;;32.40;80.20;;;;;;4095463;29;20061;-49
2022/06/04 11:55:13;;;;;;;;;;;32.20;81.50;;;;;;4095676;29;20406;-50
2022/06/04 11:57:54;;;;;;;4.00;0.50;;;32.50;81.90;;;;;;4095792;29;19976;-51
2022/06/04 12:00:32;;;;;;;4.13;0.50;;;32.70;84.40;;;;;;4096223;29;20054;-49
2022/06/04 12:03:15;;;;;;;3.72;0.60;;;32.20;84.00;;;;;;4095865;29;20101;-50
2022/06/04 12:05:44;;;;;;;1.17;0.50;;;32.60;85.60;;;;;;4096152;29;20401;-51
2022/06/04 12:08:10;;;;;;;6.78;0.73;;;32.80;82.00;;;;;;4095680;29;20062;-49
2022/06/04 12:10:55;;;;;;;7.22;1.10;;;32.30;82.90;;;;;;4096004;29;20054;-50
2022/06/04 12:13:16;;;;;;;1.90;0.50;;;32.40;83.80;;;;;;4079683;29;20487;-50
2022/06/04 12:15:43;;;;;;;3.92;0.50;;;32.40;84.40;;;;;;4079848;29;20054;-50
2022/06/04 12:18:45;;;;;;;5.47;0.50;;;32.30;81.90;;;;;;4088722;28;20058;-50
2022/06/04 12:24:17;;;;;;;;;;;32.20;82.50;;;;;;4161117;28;20049;-47
2022/06/04 12:26:41;;;;;;;2.80;0.60;;;32.00;81.30;;;;;;4160451;28;19964;-49
2022/06/04 12:29:27;;;;;;;3.75;0.47;;;32.60;85.90;;;;;;4160608;28;20107;-49
2022/06/04 12:31:54;;;;;;;3.80;0.50;;;32.80;85.40;;;;;;4160614;28;20136;-50
2022/06/04 12:34:45;;;;;;;1.13;0.50;;;32.90;82.00;;;;;;4159992;28;20084;-48
2022/06/04 12:37:21;;;;;;;7.18;0.50;;;33.30;84.80;;;;;;4117679;28;20516;-49
2022/06/04 12:39:41;;;;;;;2.67;0.73;;;32.80;82.00;;;;;;4111653;28;20050;-50
2022/06/04 12:42:20;;;;;;;5.60;0.52;;;32.80;82.70;;;;;;4111704;28;20053;-51
2022/06/04 12:44:55;;;;;;;5.53;0.60;;;33.10;84.60;;;;;;4111363;28;20103;-50
2022/06/04 12:47:26;;;;;;;5.05;0.50;;;32.80;83.50;;;;;;4111312;28;20414;-49
2022/06/04 12:49:59;;;;;;;7.38;0.60;;;33.20;85.60;;;;;;4114482;28;20397;-50
2022/06/04 12:52:42;;;;;;;6.30;0.70;;;33.00;80.40;;;;;;4111247;28;20053;-50
2022/06/04 12:55:32;;;;;;;5.60;0.60;;;33.00;83.20;;;;;;4095351;29;20131;-49
2022/06/04 12:57:58;;;;;;;3.25;0.50;;;32.80;81.80;;;;;;4114715;28;20545;-49
2022/06/04 13:00:30;;;;;;;2.35;0.60;;;33.00;84.00;;;;;;4121715;28;20113;-50